Terminal Aerodrome Forecast
Issued by NWS Twin Cities, MN

Home | Current Version | Previous Version | Text Only | Print | Product List | Glossary On
Versions: 1 2 3 4 5 6 7 8 9 10 11 12 13 14 15 16 17 18 19 20
000
FTUS43 KMPX 231136
TAFEAU
TAF
KEAU 231136Z 2312/2412 VRB02KT P6SM BKN250
      TEMPO 2312/2314 3SM BR
     FM231400 18005KT P6SM BKN150
     FM231800 22008KT P6SM SCT060 BKN120
     FM240000 16004KT P6SM BKN060 OVC100
     FM240600 13004KT P6SM BKN050=

USA.gov is the U.S. government's official web portal to all federal, state and local government web resources and services.